Have a Safe July 4th! 

Flight Track Log - Related Links

Times and Time Zones

All times are in EST time to prevent confusion due to time zone crossing. See the N589H flight status page for this flight to view local times or setup timezone preferences in your user account.

Time Position Orientation Groundspeed Altitude Reporting Facility
EST Latitude Longitude Course Direction KTS MPH feet Rate Location/Type
Thu 08:53:21 AM 27.9333 -82.7000 360° North 145 167 600  Level Tampa TRACON
Thu 08:53:51 AM 27.9500 -82.7000 360° North 148 170 1,700 1,800 Climbing Tampa TRACON
Thu 08:54:51 AM 27.9833 -82.7167 336° Northwest 169 194 3,300 1,750 Climbing Tampa TRACON
Thu 08:55:51 AM 28.0333 -82.7333 344° North 172 198 5,200 1,843 Climbing Tampa TRACON
Thu 08:57:24 AM 28.1144 -82.7208 North 198 228 8,000 1,882 Climbing Jacksonville Center
Thu 08:58:24 AM 28.1664 -82.6808 34° Northeast 209 241 10,000 1,500 Climbing Jacksonville Center
Thu 08:59:24 AM 28.1997 -82.6100 62° Northeast 217 250 11,000 500 Climbing Jacksonville Center
Thu 09:00:24 AM 28.2747 -82.5886 14° North 243 280 11,000 650 Level Jacksonville Center
Thu 09:01:24 AM 28.3456 -82.5694 13° North 249 287 12,300 1,700 Climbing Jacksonville Center
Thu 09:02:24 AM 28.4083 -82.5622 North 235 270 14,400 1,900 Climbing Jacksonville Center
Thu 09:03:24 AM 28.4667 -82.5644 358° North 215 247 16,100 1,750 Climbing Jacksonville Center
Thu 09:04:24 AM 28.5294 -82.5664 358° North 215 247 17,900 1,650 Climbing Jacksonville Center
Thu 09:05:24 AM 28.5939 -82.5686 358° North 220 253 19,400 1,650 Climbing Jacksonville Center
Thu 09:06:24 AM 28.6608 -82.5708 358° North 227 261 21,200 1,650 Climbing Jacksonville Center
Thu 09:07:24 AM 28.7339 -82.5681 North 232 267 22,700 1,500 Climbing Jacksonville Center
Thu 09:08:24 AM 28.8069 -82.5656 North 237 273 24,200 1,400 Climbing Jacksonville Center
Thu 09:09:24 AM 28.8800 -82.5606 North 250 288 25,500 1,250 Climbing Jacksonville Center
Thu 09:10:24 AM 28.9550 -82.5581 North 260 299 26,700 1,150 Climbing Jacksonville Center
Thu 09:11:24 AM 29.0344 -82.5553 North 267 307 27,800 1,150 Climbing Jacksonville Center
Thu 09:12:24 AM 29.1075 -82.5694 350° North 273 314 29,000 1,050 Climbing Jacksonville Center
Thu 09:13:24 AM 29.1847 -82.5786 354° North 273 314 29,900 950 Climbing Jacksonville Center
Thu 09:14:24 AM 29.2600 -82.5903 352° North 281 323 30,900 1,050 Climbing Jacksonville Center
Thu 09:15:24 AM 29.3392 -82.5972 356° North 281 323 32,000 550 Climbing Jacksonville Center
Thu 09:16:24 AM 29.4228 -82.6064 355° North 286 329 32,000  Level Jacksonville Center
Thu 09:17:24 AM 29.5083 -82.6231 350° North 302 348 32,000  Level Jacksonville Center
Thu 09:18:24 AM 29.6003 -82.6369 353° North 314 361 32,000  Level Jacksonville Center
Thu 09:19:24 AM 29.6964 -82.6558 350° North 335 386 32,000  Level Jacksonville Center
Thu 09:20:24 AM 29.7925 -82.6747 350° North 335 386 32,000 250 Level Jacksonville Center
Thu 09:21:24 AM 29.8842 -82.6939 350° North 340 391 32,500 600 Climbing Jacksonville Center
Thu 09:22:24 AM 29.9783 -82.7103 351° North 340 391 33,200 650 Climbing Jacksonville Center
Thu 09:23:24 AM 30.0639 -82.7367 345° North 327 376 33,800 400 Climbing Jacksonville Center
Thu 09:24:24 AM 30.1578 -82.7269 North 322 371 34,000 350 Climbing Jacksonville Center
Thu 09:25:24 AM 30.2558 -82.7122 North 334 384 34,500 500 Climbing Jacksonville Center
Thu 09:26:24 AM 30.3542 -82.7000 North 340 391 35,000 500 Climbing Jacksonville Center
Thu 09:27:24 AM 30.4481 -82.6925 North 340 391 35,500 500 Climbing Jacksonville Center
Thu 09:28:24 AM 30.5419 -82.6731 10° North 340 391 36,000 500 Climbing Jacksonville Center
Thu 09:29:24 AM 30.6378 -82.6244 24° Northeast 350 403 36,500 500 Climbing Jacksonville Center
Thu 09:30:24 AM 30.7297 -82.5783 23° Northeast 360 414 37,000 250 Climbing Jacksonville Center
Thu 09:31:24 AM 30.8214 -82.5081 33° Northeast 372 428 37,000  Level Jacksonville Center
Thu 09:32:24 AM 30.9131 -82.4350 34° Northeast 384 442 37,000  Level Jacksonville Center
Thu 09:33:24 AM 31.0067 -82.3569 36° Northeast 402 463 37,000  Level Jacksonville Center
Thu 09:34:24 AM 31.1106 -82.2761 34° Northeast 426 490 37,000  Level Jacksonville Center
Thu 09:35:24 AM 31.2083 -82.2003 34° Northeast 421 484 37,000  Level Jacksonville Center
Thu 09:36:24 AM 31.3061 -82.1194 35° Northeast 421 484 37,000  Level Jacksonville Center
Thu 09:37:24 AM 31.4036 -82.0406 35° Northeast 421 484 37,000  Level Jacksonville Center
Thu 09:38:24 AM 31.4931 -81.9692 34° Northeast 421 484 37,000  Level Jacksonville Center
Thu 09:39:24 AM 31.6031 -81.8803 35° Northeast 421 484 37,000  Level Jacksonville Center
Thu 09:40:24 AM 31.7006 -81.8011 35° Northeast 421 484 37,000  Level Jacksonville Center
Thu 09:41:24 AM 31.7894 -81.7267 35° Northeast 421 484 37,000  Level Jacksonville Center
Thu 09:42:24 AM 31.8972 -81.6397 34° Northeast 427 491 37,000  Level Jacksonville Center
Thu 09:43:24 AM 31.9944 -81.5575 36° Northeast 427 491 37,000  Level Jacksonville Center
Thu 09:44:24 AM 32.0836 -81.4853 34° Northeast 429 494 37,000  Level Jacksonville Center
Thu 09:45:24 AM 32.1911 -81.3975 35° Northeast 424 488 37,000  Level Jacksonville Center
Thu 09:46:24 AM 32.2800 -81.3225 35° Northeast 424 488 37,000  Level Jacksonville Center
Thu 09:47:24 AM 32.3769 -81.2394 36° Northeast 424 488 37,000  Level Jacksonville Center
Thu 09:48:24 AM 32.4742 -81.1614 34° Northeast 424 488 37,000  Level Jacksonville Center
Thu 09:49:24 AM 32.5836 -81.0706 35° Northeast 418 481 37,000  Level Jacksonville Center
Thu 09:50:24 AM 32.6722 -80.9947 36° Northeast 425 489 37,000  Level Jacksonville Center
Thu 09:51:24 AM 32.7689 -80.9136 35° Northeast 425 489 37,000  Level Jacksonville Center
Thu 09:52:24 AM 32.8658 -80.8300 36° Northeast 425 489 37,000  Level Jacksonville Center
Thu 09:53:24 AM 32.9708 -80.7458 34° Northeast 418 481 37,000  Level Jacksonville Center
Thu 09:54:24 AM 33.0675 -80.6617 36° Northeast 418 481 37,000  Level Jacksonville Center
Thu 09:55:24 AM 33.1642 -80.5800 35° Northeast 418 481 37,000  Level Jacksonville Center
Thu 09:56:24 AM 33.2606 -80.4956 36° Northeast 418 481 37,000  Level Jacksonville Center
Thu 09:57:25 AM 33.3572 -80.4158 35° Northeast 418 481 37,000  Level Jacksonville Center
Thu 09:58:24 AM 33.4536 -80.3333 36° Northeast 418 481 37,000  Level Jacksonville Center
Thu 09:59:24 AM 33.5478 -80.2508 36° Northeast 418 481 37,000  Level Jacksonville Center
Thu 10:00:24 AM 33.6422 -80.1708 35° Northeast 418 481 37,000  Level Jacksonville Center
Thu 10:01:24 AM 33.7364 -80.0881 36° Northeast 418 481 37,000  Level Jacksonville Center
Thu 10:02:24 AM 33.8306 -80.0075 35° Northeast 418 481 37,000  Level Jacksonville Center
Thu 10:03:24 AM 33.9206 -79.9269 37° Northeast 418 481 37,000  Level Jacksonville Center
Thu 10:04:24 AM 34.0144 -79.8461 36° Northeast 418 481 37,000  Level Jacksonville Center
Thu 10:05:24 AM 34.1086 -79.7650 35° Northeast 418 481 37,000  Level Jacksonville Center
Thu 10:07:01 AM 34.2450 -79.6442 36° Northeast 411 473 37,000  Level Washington Center
Thu 10:08:02 AM 34.3356 -79.5606 37° Northeast 416 479 37,000  Level Washington Center
Thu 10:09:00 AM 34.4278 -79.4819 35° Northeast 411 473 37,000  Level Washington Center
Thu 10:10:01 AM 34.5200 -79.4006 36° Northeast 411 473 37,000  Level Washington Center
Thu 10:11:01 AM 34.6125 -79.3192 36° Northeast 411 473 37,000  Level Washington Center
Thu 10:11:59 AM 34.7047 -79.2350 37° Northeast 411 473 37,000  Level Washington Center
Thu 10:13:00 AM 34.7969 -79.1531 36° Northeast 411 473 37,000  Level Washington Center
Thu 10:14:01 AM 34.8872 -79.0608 40° Northeast 416 479 37,000  Level Washington Center
Thu 10:15:02 AM 34.9736 -78.9606 44° Northeast 416 479 37,000  Level Washington Center
Thu 10:16:00 AM 35.0619 -78.8578 44° Northeast 427 491 37,000  Level Washington Center
Thu 10:17:00 AM 35.1461 -78.7594 44° Northeast 427 491 37,000  Level Washington Center
Thu 10:18:01 AM 35.2322 -78.6586 44° Northeast 427 491 37,000  Level Washington Center
Thu 10:19:02 AM 35.3267 -78.5478 44° Northeast 427 491 37,000  Level Washington Center
Thu 10:20:00 AM 35.4147 -78.4464 43° Northeast 432 497 37,000  Level Washington Center
Thu 10:21:00 AM 35.5006 -78.3425 45° Northeast 432 497 37,000  Level Washington Center
Thu 10:22:01 AM 35.5883 -78.2433 43° Northeast 427 491 37,000  Level Washington Center
Thu 10:23:02 AM 35.6739 -78.1439 43° Northeast 427 491 37,000  Level Washington Center
Thu 10:24:03 AM 35.7597 -78.0392 45° Northeast 422 486 37,000  Level Washington Center
Thu 10:25:00 AM 35.8453 -77.9392 43° Northeast 422 486 37,000  Level Washington Center
Thu 10:26:01 AM 35.9306 -77.8392 44° Northeast 422 486 37,000  Level Washington Center
Thu 10:27:01 AM 36.0158 -77.7389 44° Northeast 417 480 37,000  Level Washington Center
Thu 10:28:02 AM 36.0989 -77.6356 45° Northeast 417 480 37,000  Level Washington Center
Thu 10:29:02 AM 36.1900 -77.5506 37° Northeast 411 473 37,000  Level Washington Center
Thu 10:30:02 AM 36.2853 -77.4678 35° Northeast 411 473 37,000  Level Washington Center
Thu 10:31:00 AM 36.3658 -77.3925 37° Northeast 406 467 37,000  Level Washington Center
Thu 10:32:00 AM 36.4567 -77.3042 38° Northeast 406 467 37,000  Level Washington Center
Thu 10:33:01 AM 36.5497 -77.2156 37° Northeast 413 475 37,000  Level Washington Center
Thu 10:34:00 AM 36.6428 -77.1294 37° Northeast 418 481 37,000  Level Washington Center
Thu 10:35:01 AM 36.7358 -77.0381 38° Northeast 418 481 37,000  Level Washington Center
Thu 10:36:00 AM 36.8286 -76.9517 37° Northeast 418 481 37,000  Level Washington Center
Thu 10:37:01 AM 36.9192 -76.8622 38° Northeast 418 481 37,000  Level Washington Center
Thu 10:38:02 AM 37.0119 -76.7753 37° Northeast 413 475 37,000  Level Washington Center
Thu 10:39:00 AM 37.1044 -76.6856 38° Northeast 413 475 37,000  Level Washington Center
Thu 10:40:02 AM 37.1950 -76.5983 37° Northeast 413 475 37,000  Level Washington Center
Thu 10:41:02 AM 37.2875 -76.5081 38° Northeast 413 475 37,000  Level Washington Center
Thu 10:42:00 AM 37.3883 -76.4100 38° Northeast 419 482 37,000  Level Washington Center
Thu 10:43:00 AM 37.4806 -76.3194 38° Northeast 414 476 37,000  Level Washington Center
Thu 10:44:01 AM 37.5750 -76.2311 37° Northeast 414 476 37,000  Level Washington Center
Thu 10:45:01 AM 37.6714 -76.1453 35° Northeast 414 476 37,000  Level Washington Center
Thu 10:46:02 AM 37.7678 -76.0594 35° Northeast 414 476 37,000  Level Washington Center
Thu 10:47:01 AM 37.8578 -75.9653 40° Northeast 419 482 37,000  Level Washington Center
Thu 10:48:01 AM 37.9517 -75.8789 36° Northeast 419 482 37,000  Level Washington Center
Thu 10:49:01 AM 38.0500 -75.7894 36° Northeast 419 482 37,000  Level Washington Center
Thu 10:50:02 AM 38.1439 -75.7000 37° Northeast 419 482 37,000  Level Washington Center
Thu 10:51:02 AM 38.2397 -75.6103 36° Northeast 419 482 37,000  Level Washington Center
Thu 10:52:00 AM 38.3294 -75.5336 34° Northeast 429 494 37,000  Level Washington Center
Thu 10:53:00 AM 38.4233 -75.4406 38° Northeast 429 494 37,000  Level Washington Center
Thu 10:54:01 AM 38.5169 -75.3475 38° Northeast 429 494 37,000  Level Washington Center
Thu 10:55:02 AM 38.6125 -75.2622 35° Northeast 429 494 37,000  Level Washington Center
Thu 10:56:02 AM 38.7061 -75.1714 37° Northeast 429 494 37,000  Level Washington Center
Thu 10:57:00 AM 38.8017 -75.0775 37° Northeast 429 494 37,000  Level Washington Center
Thu 10:58:00 AM 38.8972 -74.9889 36° Northeast 429 494 37,000  Level Washington Center
Thu 10:59:01 AM 38.9883 -74.9028 36° Northeast 424 488 37,000  Level Washington Center
Thu 11:00:00 AM 39.0817 -74.8081 38° Northeast 424 488 37,000  Level Washington Center
Thu 11:01:00 AM 39.1747 -74.7189 37° Northeast 424 488 37,000  Level Washington Center
Thu 11:02:01 AM 39.2700 -74.6264 37° Northeast 424 488 37,000  Level Washington Center
Thu 11:03:01 AM 39.3628 -74.5339 38° Northeast 424 488 37,000  Level Washington Center
Thu 11:04:02 AM 39.4539 -74.4439 37° Northeast 424 488 37,000  Level Washington Center
Thu 11:05:02 AM 39.5486 -74.3508 37° Northeast 424 488 37,000  Level Washington Center
Thu 11:06:00 AM 39.6414 -74.2578 38° Northeast 424 488 37,000  Level Washington Center
Thu 11:07:00 AM 39.7361 -74.1642 37° Northeast 424 488 37,000  Level Washington Center
Thu 11:09:02 AM 39.9356 -73.9636 38° Northeast 426 490 37,000  Level Boston Center
Thu 11:10:03 AM 40.0281 -73.8692 38° Northeast 427 491 37,000  Level Boston Center
Thu 11:11:05 AM 40.1219 -73.7761 37° Northeast 426 490 37,000  Level Boston Center
Thu 11:12:06 AM 40.2144 -73.6808 38° Northeast 427 491 37,000  Level Boston Center
Thu 11:13:07 AM 40.3092 -73.5867 37° Northeast 426 490 37,000  Level Boston Center
Thu 11:14:08 AM 40.4036 -73.4931 37° Northeast 425 489 37,000  Level Boston Center
Thu 11:15:09 AM 40.4942 -73.3975 39° Northeast 423 487 37,000  Level Boston Center
Thu 11:16:10 AM 40.5850 -73.3036 38° Northeast 420 483 37,000  Level Boston Center
Thu 11:17:11 AM 40.6772 -73.2103 37° Northeast 419 482 37,000  Level Boston Center
Thu 11:18:12 AM 40.7708 -73.1158 37° Northeast 420 483 37,000 -197 Level Boston Center
Thu 11:19:13 AM 40.8800 -73.0003 39° Northeast 422 486 36,600 -1,180 Descending Boston Center
Thu 11:20:14 AM 40.9811 -72.8972 38° Northeast 456 525 34,600 -1,967 Descending Boston Center
Thu 11:21:15 AM 41.0819 -72.7894 39° Northeast 475 547 32,600 -1,967 Descending Boston Center
Thu 11:22:16 AM 41.1842 -72.6833 38° Northeast 473 544 30,600 -2,016 Descending Boston Center
Thu 11:23:17 AM 41.2969 -72.5597 39° Northeast 483 556 28,500 -2,016 Descending Boston Center
Thu 11:24:18 AM 41.4044 -72.4447 39° Northeast 489 563 26,500 -1,967 Descending Boston Center
Thu 11:25:19 AM 41.5092 -72.3328 39° Northeast 487 560 24,500 -1,918 Descending Boston Center
Thu 11:26:20 AM 41.6019 -72.2428 36° Northeast 468 539 22,600 -1,918 Descending Boston Center
Thu 11:27:21 AM 41.6964 -72.1394 39° Northeast 449 517 20,600 -2,098 Descending Boston Center
Thu 11:28:23 AM 41.8061 -72.0181 39° Northeast 443 510 18,300 -2,341 Descending Boston Center
Thu 11:29:24 AM 41.9008 -71.9169 38° Northeast 407 468 15,800 -2,213 Descending Boston Center
Thu 11:30:25 AM 41.9828 -71.8256 40° Northeast 388 447 13,800 -1,869 Descending Boston Center
Thu 11:31:26 AM 42.0603 -71.7417 39° Northeast 360 414 12,000 -1,475 Descending Boston Center
Thu 11:32:27 AM 42.1319 -71.6650 38° Northeast 330 380 10,800 -1,869 Descending Boston Center
Thu 11:33:28 AM 42.2025 -71.5856 40° Northeast 310 357 8,200 -2,213 Descending Boston Center
Thu 11:34:29 AM 42.2650 -71.5161 39° Northeast 293 337 6,300 -1,854 Descending Boston Center
Thu 11:35:31 AM 42.3175 -71.4611 38° Northeast 244 281 4,400 -1,463 Descending Boston Center
Thu 11:36:32 AM 42.3736 -71.4081 35° Northeast 244 281 3,300 -639 Descending Boston Center
Thu 11:37:33 AM 42.4397 -71.3942 North 224 258 3,100 -444 Descending Boston Center
Thu 11:38:20 AM 42.4833 -71.3667 25° Northeast 220 253 2,500 -897 Descending KA90
Thu 11:39:20 AM 42.5167 -71.3167 48° Northeast 161 185 1,500 -773 Descending KA90
Thu 11:40:32 AM 42.5000 -71.2667 114° Southeast 130 150 800 -583 Descending KA90
Thu 11:43:00 AM 42.4667 -71.2833 200° South  Level FlightAware Approximate

Login

Don't have an account? Register now (free) for customized features, flight alerts, and more!